sensor_id;sensor_type;location;lat;lon;timestamp;P1;durP1;ratioP1;P2;durP2;ratioP2
6243;SDS011;3155;49.940;8.450;2022-12-18T00:01:23;2.17;;;1.30;;
6243;SDS011;3155;49.940;8.450;2022-12-18T00:03:55;1.13;;;1.02;;
6243;SDS011;3155;49.940;8.450;2022-12-18T00:06:23;3.22;;;1.83;;
6243;SDS011;3155;49.940;8.450;2022-12-18T00:08:51;6.75;;;2.00;;
6243;SDS011;3155;49.940;8.450;2022-12-18T00:11:20;1.05;;;1.05;;
6243;SDS011;3155;49.940;8.450;2022-12-18T00:13:49;1.52;;;1.38;;
6243;SDS011;3155;49.940;8.450;2022-12-18T00:16:19;10.63;;;2.15;;
6243;SDS011;3155;49.940;8.450;2022-12-18T00:18:48;2.43;;;1.43;;
6243;SDS011;3155;49.940;8.450;2022-12-18T00:21:16;0.90;;;0.90;;
6243;SDS011;3155;49.940;8.450;2022-12-18T00:23:44;9.75;;;1.17;;
6243;SDS011;3155;49.940;8.450;2022-12-18T00:26:15;2.60;;;1.50;;
6243;SDS011;3155;49.940;8.450;2022-12-18T00:28:43;2.97;;;1.42;;
6243;SDS011;3155;49.940;8.450;2022-12-18T00:31:15;3.90;;;2.55;;
6243;SDS011;3155;49.940;8.450;2022-12-18T00:33:43;1.80;;;1.15;;
6243;SDS011;3155;49.940;8.450;2022-12-18T00:36:11;1.23;;;1.13;;
6243;SDS011;3155;49.940;8.450;2022-12-18T00:38:43;1.90;;;1.52;;
6243;SDS011;3155;49.940;8.450;2022-12-18T00:41:11;1.20;;;0.60;;
6243;SDS011;3155;49.940;8.450;2022-12-18T00:43:39;1.23;;;1.20;;
6243;SDS011;3155;49.940;8.450;2022-12-18T00:46:07;2.00;;;1.40;;
6243;SDS011;3155;49.940;8.450;2022-12-18T00:48:36;2.15;;;1.73;;
6243;SDS011;3155;49.940;8.450;2022-12-18T00:51:02;0.90;;;0.90;;
6243;SDS011;3155;49.940;8.450;2022-12-18T00:53:29;1.10;;;1.00;;
6243;SDS011;3155;49.940;8.450;2022-12-18T00:55:56;1.27;;;0.88;;
6243;SDS011;3155;49.940;8.450;2022-12-18T00:58:22;2.60;;;1.83;;
6243;SDS011;3155;49.940;8.450;2022-12-18T01:00:49;1.05;;;0.80;;
6243;SDS011;3155;49.940;8.450;2022-12-18T01:03:16;3.70;;;1.70;;
6243;SDS011;3155;49.940;8.450;2022-12-18T01:05:43;2.38;;;0.95;;
6243;SDS011;3155;49.940;8.450;2022-12-18T01:08:11;2.67;;;1.45;;
6243;SDS011;3155;49.940;8.450;2022-12-18T01:10:41;1.60;;;0.80;;
6243;SDS011;3155;49.940;8.450;2022-12-18T01:13:08;4.70;;;0.83;;
6243;SDS011;3155;49.940;8.450;2022-12-18T01:15:35;4.03;;;1.95;;
6243;SDS011;3155;49.940;8.450;2022-12-18T01:18:05;1.70;;;1.02;;
6243;SDS011;3155;49.940;8.450;2022-12-18T01:20:32;1.23;;;0.80;;
6243;SDS011;3155;49.940;8.450;2022-12-18T01:22:59;1.10;;;0.68;;
6243;SDS011;3155;49.940;8.450;2022-12-18T01:25:26;0.70;;;0.70;;
6243;SDS011;3155;49.940;8.450;2022-12-18T01:27:52;2.10;;;1.00;;
6243;SDS011;3155;49.940;8.450;2022-12-18T01:30:19;2.08;;;1.00;;
6243;SDS011;3155;49.940;8.450;2022-12-18T01:32:49;4.00;;;1.10;;
6243;SDS011;3155;49.940;8.450;2022-12-18T01:35:16;0.60;;;0.60;;
6243;SDS011;3155;49.940;8.450;2022-12-18T01:37:43;3.20;;;1.63;;
6243;SDS011;3155;49.940;8.450;2022-12-18T01:40:10;0.70;;;0.70;;
6243;SDS011;3155;49.940;8.450;2022-12-18T01:42:37;3.60;;;1.17;;
6243;SDS011;3155;49.940;8.450;2022-12-18T01:45:05;1.17;;;0.95;;
6243;SDS011;3155;49.940;8.450;2022-12-18T01:47:53;1.43;;;1.30;;
6243;SDS011;3155;49.940;8.450;2022-12-18T01:50:30;0.40;;;0.40;;
6243;SDS011;3155;49.940;8.450;2022-12-18T01:53:14;2.00;;;1.30;;
6243;SDS011;3155;49.940;8.450;2022-12-18T01:55:44;1.00;;;0.98;;
6243;SDS011;3155;49.940;8.450;2022-12-18T01:58:18;2.10;;;1.00;;
6243;SDS011;3155;49.940;8.450;2022-12-18T02:00:46;1.30;;;0.95;;
6243;SDS011;3155;49.940;8.450;2022-12-18T02:03:12;1.92;;;1.30;;
6243;SDS011;3155;49.940;8.450;2022-12-18T02:19:06;2.83;;;1.48;;
6243;SDS011;3155;49.940;8.450;2022-12-18T02:24:51;4.20;;;1.95;;
6243;SDS011;3155;49.940;8.450;2022-12-18T02:27:20;2.90;;;0.70;;
6243;SDS011;3155;49.940;8.450;2022-12-18T02:29:50;1.70;;;0.90;;
6243;SDS011;3155;49.940;8.450;2022-12-18T02:35:24;1.80;;;1.33;;
6243;SDS011;3155;49.940;8.450;2022-12-18T02:37:56;0.35;;;0.35;;
6243;SDS011;3155;49.940;8.450;2022-12-18T02:40:27;1.33;;;1.00;;
6243;SDS011;3155;49.940;8.450;2022-12-18T02:42:54;1.20;;;1.10;;
6243;SDS011;3155;49.940;8.450;2022-12-18T02:45:21;0.65;;;0.65;;
6243;SDS011;3155;49.940;8.450;2022-12-18T02:47:48;2.37;;;1.73;;
6243;SDS011;3155;49.940;8.450;2022-12-18T02:52:50;0.57;;;0.57;;
6243;SDS011;3155;49.940;8.450;2022-12-18T02:58:15;1.45;;;1.05;;
6243;SDS011;3155;49.940;8.450;2022-12-18T03:01:10;4.70;;;0.95;;
6243;SDS011;3155;49.940;8.450;2022-12-18T03:03:59;0.77;;;0.77;;
6243;SDS011;3155;49.940;8.450;2022-12-18T03:06:31;1.25;;;0.98;;
6243;SDS011;3155;49.940;8.450;2022-12-18T03:09:03;1.37;;;1.00;;
6243;SDS011;3155;49.940;8.450;2022-12-18T03:11:34;2.58;;;0.77;;
6243;SDS011;3155;49.940;8.450;2022-12-18T03:14:24;1.20;;;0.88;;
6243;SDS011;3155;49.940;8.450;2022-12-18T03:16:54;1.90;;;1.20;;
6243;SDS011;3155;49.940;8.450;2022-12-18T03:19:29;2.85;;;0.90;;
6243;SDS011;3155;49.940;8.450;2022-12-18T03:22:00;2.40;;;0.80;;
6243;SDS011;3155;49.940;8.450;2022-12-18T03:24:29;1.00;;;0.90;;
6243;SDS011;3155;49.940;8.450;2022-12-18T03:27:00;4.35;;;2.13;;
6243;SDS011;3155;49.940;8.450;2022-12-18T03:29:35;0.50;;;0.50;;
6243;SDS011;3155;49.940;8.450;2022-12-18T03:32:28;2.00;;;1.08;;
6243;SDS011;3155;49.940;8.450;2022-12-18T03:34:56;2.47;;;1.17;;
6243;SDS011;3155;49.940;8.450;2022-12-18T03:37:25;0.43;;;0.43;;
6243;SDS011;3155;49.940;8.450;2022-12-18T03:39:52;0.90;;;0.50;;
6243;SDS011;3155;49.940;8.450;2022-12-18T03:42:29;1.70;;;1.30;;
6243;SDS011;3155;49.940;8.450;2022-12-18T03:47:35;10.90;;;1.80;;
6243;SDS011;3155;49.940;8.450;2022-12-18T03:50:17;0.95;;;0.95;;
6243;SDS011;3155;49.940;8.450;2022-12-18T03:52:56;3.45;;;1.48;;
6243;SDS011;3155;49.940;8.450;2022-12-18T03:55:27;1.27;;;1.17;;
6243;SDS011;3155;49.940;8.450;2022-12-18T03:58:02;1.67;;;1.27;;
6243;SDS011;3155;49.940;8.450;2022-12-18T04:00:32;0.43;;;0.35;;
6243;SDS011;3155;49.940;8.450;2022-12-18T04:03:01;0.73;;;0.73;;
6243;SDS011;3155;49.940;8.450;2022-12-18T04:05:30;0.80;;;0.63;;
6243;SDS011;3155;49.940;8.450;2022-12-18T04:08:01;1.03;;;1.03;;
6243;SDS011;3155;49.940;8.450;2022-12-18T04:10:28;1.20;;;1.10;;
6243;SDS011;3155;49.940;8.450;2022-12-18T04:12:56;1.70;;;0.90;;
6243;SDS011;3155;49.940;8.450;2022-12-18T04:15:23;1.13;;;1.08;;
6243;SDS011;3155;49.940;8.450;2022-12-18T04:17:51;1.75;;;1.00;;
6243;SDS011;3155;49.940;8.450;2022-12-18T04:20:20;2.90;;;1.48;;
6243;SDS011;3155;49.940;8.450;2022-12-18T04:22:46;4.37;;;1.73;;
6243;SDS011;3155;49.940;8.450;2022-12-18T04:25:13;0.90;;;0.70;;
6243;SDS011;3155;49.940;8.450;2022-12-18T04:27:45;1.88;;;0.98;;
6243;SDS011;3155;49.940;8.450;2022-12-18T04:30:12;1.20;;;0.80;;
6243;SDS011;3155;49.940;8.450;2022-12-18T04:32:39;1.45;;;0.80;;
6243;SDS011;3155;49.940;8.450;2022-12-18T04:35:06;0.80;;;0.80;;
6243;SDS011;3155;49.940;8.450;2022-12-18T04:37:36;0.93;;;0.60;;
6243;SDS011;3155;49.940;8.450;2022-12-18T04:40:05;2.40;;;1.48;;
6243;SDS011;3155;49.940;8.450;2022-12-18T04:42:32;1.23;;;1.23;;
6243;SDS011;3155;49.940;8.450;2022-12-18T04:44:59;3.67;;;0.90;;
6243;SDS011;3155;49.940;8.450;2022-12-18T04:47:26;1.87;;;1.23;;
6243;SDS011;3155;49.940;8.450;2022-12-18T04:49:53;1.65;;;1.45;;
6243;SDS011;3155;49.940;8.450;2022-12-18T04:52:19;3.00;;;1.53;;
6243;SDS011;3155;49.940;8.450;2022-12-18T04:54:49;1.75;;;1.65;;
6243;SDS011;3155;49.940;8.450;2022-12-18T04:57:15;3.47;;;0.98;;
6243;SDS011;3155;49.940;8.450;2022-12-18T04:59:44;1.83;;;1.30;;
6243;SDS011;3155;49.940;8.450;2022-12-18T05:02:10;1.30;;;1.20;;
6243;SDS011;3155;49.940;8.450;2022-12-18T05:04:40;1.10;;;1.10;;
6243;SDS011;3155;49.940;8.450;2022-12-18T05:07:06;0.80;;;0.80;;
6243;SDS011;3155;49.940;8.450;2022-12-18T05:09:33;1.90;;;0.60;;
6243;SDS011;3155;49.940;8.450;2022-12-18T05:12:00;1.70;;;0.73;;
6243;SDS011;3155;49.940;8.450;2022-12-18T05:14:27;1.60;;;1.02;;
6243;SDS011;3155;49.940;8.450;2022-12-18T05:16:56;1.02;;;0.70;;
6243;SDS011;3155;49.940;8.450;2022-12-18T05:19:26;2.33;;;1.83;;
6243;SDS011;3155;49.940;8.450;2022-12-18T05:21:53;9.18;;;2.50;;
6243;SDS011;3155;49.940;8.450;2022-12-18T05:24:26;2.85;;;0.75;;
6243;SDS011;3155;49.940;8.450;2022-12-18T05:26:52;2.42;;;0.90;;
6243;SDS011;3155;49.940;8.450;2022-12-18T05:29:22;2.95;;;1.10;;
6243;SDS011;3155;49.940;8.450;2022-12-18T05:31:49;1.65;;;0.90;;
6243;SDS011;3155;49.940;8.450;2022-12-18T05:34:16;1.10;;;1.00;;
6243;SDS011;3155;49.940;8.450;2022-12-18T05:36:43;0.90;;;0.80;;
6243;SDS011;3155;49.940;8.450;2022-12-18T05:39:09;5.57;;;1.97;;
6243;SDS011;3155;49.940;8.450;2022-12-18T05:41:36;2.50;;;1.17;;
6243;SDS011;3155;49.940;8.450;2022-12-18T05:44:06;1.25;;;1.15;;
6243;SDS011;3155;49.940;8.450;2022-12-18T05:46:33;2.22;;;1.25;;
6243;SDS011;3155;49.940;8.450;2022-12-18T05:49:00;4.30;;;1.45;;
6243;SDS011;3155;49.940;8.450;2022-12-18T05:51:27;0.70;;;0.70;;
6243;SDS011;3155;49.940;8.450;2022-12-18T05:53:54;0.90;;;0.88;;
6243;SDS011;3155;49.940;8.450;2022-12-18T05:56:21;1.50;;;0.95;;
6243;SDS011;3155;49.940;8.450;2022-12-18T05:58:50;1.20;;;1.20;;
6243;SDS011;3155;49.940;8.450;2022-12-18T06:01:21;1.60;;;1.23;;
6243;SDS011;3155;49.940;8.450;2022-12-18T06:03:52;1.50;;;0.80;;
6243;SDS011;3155;49.940;8.450;2022-12-18T06:06:23;1.80;;;1.57;;
6243;SDS011;3155;49.940;8.450;2022-12-18T06:08:52;0.98;;;0.98;;
6243;SDS011;3155;49.940;8.450;2022-12-18T06:11:21;3.80;;;1.60;;
6243;SDS011;3155;49.940;8.450;2022-12-18T06:13:52;1.30;;;0.70;;
6243;SDS011;3155;49.940;8.450;2022-12-18T06:16:24;2.08;;;1.33;;
6243;SDS011;3155;49.940;8.450;2022-12-18T06:18:52;1.77;;;1.67;;
6243;SDS011;3155;49.940;8.450;2022-12-18T06:21:19;1.30;;;1.20;;
6243;SDS011;3155;49.940;8.450;2022-12-18T06:23:46;2.70;;;1.73;;
6243;SDS011;3155;49.940;8.450;2022-12-18T06:26:13;0.82;;;0.82;;
6243;SDS011;3155;49.940;8.450;2022-12-18T06:28:40;1.15;;;1.15;;
6243;SDS011;3155;49.940;8.450;2022-12-18T06:31:07;4.00;;;1.15;;
6243;SDS011;3155;49.940;8.450;2022-12-18T06:33:35;2.35;;;1.98;;
6243;SDS011;3155;49.940;8.450;2022-12-18T06:36:03;0.75;;;0.75;;
6243;SDS011;3155;49.940;8.450;2022-12-18T06:38:37;0.95;;;0.90;;
6243;SDS011;3155;49.940;8.450;2022-12-18T06:41:26;1.38;;;1.27;;
6243;SDS011;3155;49.940;8.450;2022-12-18T06:43:52;4.32;;;1.08;;
6243;SDS011;3155;49.940;8.450;2022-12-18T06:46:25;1.00;;;1.00;;
6243;SDS011;3155;49.940;8.450;2022-12-18T06:48:51;2.47;;;0.83;;
6243;SDS011;3155;49.940;8.450;2022-12-18T06:51:22;1.60;;;1.25;;
6243;SDS011;3155;49.940;8.450;2022-12-18T06:53:49;1.83;;;1.33;;
6243;SDS011;3155;49.940;8.450;2022-12-18T06:56:16;1.27;;;1.17;;
6243;SDS011;3155;49.940;8.450;2022-12-18T06:58:46;1.20;;;1.00;;
6243;SDS011;3155;49.940;8.450;2022-12-18T07:01:13;5.88;;;1.38;;
6243;SDS011;3155;49.940;8.450;2022-12-18T07:03:40;0.90;;;0.90;;
6243;SDS011;3155;49.940;8.450;2022-12-18T07:06:18;0.73;;;0.73;;
6243;SDS011;3155;49.940;8.450;2022-12-18T07:08:47;0.70;;;0.70;;
6243;SDS011;3155;49.940;8.450;2022-12-18T07:11:15;1.10;;;0.67;;
6243;SDS011;3155;49.940;8.450;2022-12-18T07:13:43;0.63;;;0.63;;
6243;SDS011;3155;49.940;8.450;2022-12-18T07:16:13;0.25;;;0.25;;
6243;SDS011;3155;49.940;8.450;2022-12-18T07:18:50;1.50;;;0.90;;
6243;SDS011;3155;49.940;8.450;2022-12-18T07:21:18;0.50;;;0.43;;
6243;SDS011;3155;49.940;8.450;2022-12-18T07:23:46;3.80;;;0.98;;
6243;SDS011;3155;49.940;8.450;2022-12-18T07:26:14;1.15;;;0.85;;
6243;SDS011;3155;49.940;8.450;2022-12-18T07:28:43;1.80;;;0.90;;
6243;SDS011;3155;49.940;8.450;2022-12-18T07:31:15;0.50;;;0.50;;
6243;SDS011;3155;49.940;8.450;2022-12-18T07:33:43;0.75;;;0.75;;
6243;SDS011;3155;49.940;8.450;2022-12-18T07:36:10;0.70;;;0.70;;
6243;SDS011;3155;49.940;8.450;2022-12-18T07:38:40;2.60;;;0.75;;
6243;SDS011;3155;49.940;8.450;2022-12-18T07:41:13;1.60;;;1.17;;
6243;SDS011;3155;49.940;8.450;2022-12-18T07:43:40;0.87;;;0.73;;
6243;SDS011;3155;49.940;8.450;2022-12-18T07:46:12;0.80;;;0.80;;
6243;SDS011;3155;49.940;8.450;2022-12-18T07:48:42;6.25;;;2.10;;
6243;SDS011;3155;49.940;8.450;2022-12-18T07:51:15;0.80;;;0.80;;
6243;SDS011;3155;49.940;8.450;2022-12-18T07:53:43;2.15;;;1.02;;
6243;SDS011;3155;49.940;8.450;2022-12-18T07:56:17;1.33;;;1.15;;
6243;SDS011;3155;49.940;8.450;2022-12-18T07:58:54;1.25;;;0.75;;
6243;SDS011;3155;49.940;8.450;2022-12-18T08:01:21;1.00;;;1.00;;
6243;SDS011;3155;49.940;8.450;2022-12-18T08:03:48;1.40;;;1.23;;
6243;SDS011;3155;49.940;8.450;2022-12-18T08:06:17;0.65;;;0.63;;
6243;SDS011;3155;49.940;8.450;2022-12-18T08:08:50;2.00;;;1.23;;
6243;SDS011;3155;49.940;8.450;2022-12-18T08:11:18;0.95;;;0.95;;
6243;SDS011;3155;49.940;8.450;2022-12-18T08:13:45;1.57;;;0.77;;
6243;SDS011;3155;49.940;8.450;2022-12-18T08:16:11;2.67;;;1.40;;
6243;SDS011;3155;49.940;8.450;2022-12-18T08:18:38;1.50;;;1.40;;
6243;SDS011;3155;49.940;8.450;2022-12-18T08:21:08;11.30;;;2.42;;
6243;SDS011;3155;49.940;8.450;2022-12-18T08:23:39;7.07;;;2.55;;
6243;SDS011;3155;49.940;8.450;2022-12-18T08:26:09;1.63;;;1.52;;
6243;SDS011;3155;49.940;8.450;2022-12-18T08:28:36;3.42;;;1.33;;
6243;SDS011;3155;49.940;8.450;2022-12-18T08:31:03;3.10;;;2.00;;
6243;SDS011;3155;49.940;8.450;2022-12-18T08:33:31;1.83;;;1.70;;
6243;SDS011;3155;49.940;8.450;2022-12-18T08:35:59;0.63;;;0.63;;
6243;SDS011;3155;49.940;8.450;2022-12-18T08:38:26;1.17;;;1.17;;
6243;SDS011;3155;49.940;8.450;2022-12-18T08:41:03;3.30;;;2.10;;
6243;SDS011;3155;49.940;8.450;2022-12-18T08:43:31;2.55;;;1.33;;
6243;SDS011;3155;49.940;8.450;2022-12-18T08:46:17;4.30;;;1.65;;
6243;SDS011;3155;49.940;8.450;2022-12-18T08:48:45;6.27;;;1.90;;
6243;SDS011;3155;49.940;8.450;2022-12-18T08:51:13;3.25;;;0.80;;
6243;SDS011;3155;49.940;8.450;2022-12-18T08:53:42;2.40;;;1.70;;
6243;SDS011;3155;49.940;8.450;2022-12-18T08:56:10;2.97;;;1.52;;
6243;SDS011;3155;49.940;8.450;2022-12-18T08:58:37;1.77;;;1.50;;
6243;SDS011;3155;49.940;8.450;2022-12-18T09:01:05;3.00;;;1.98;;
6243;SDS011;3155;49.940;8.450;2022-12-18T09:03:35;2.03;;;1.65;;
6243;SDS011;3155;49.940;8.450;2022-12-18T09:06:02;4.82;;;1.58;;
6243;SDS011;3155;49.940;8.450;2022-12-18T09:08:29;3.83;;;2.83;;
6243;SDS011;3155;49.940;8.450;2022-12-18T09:10:56;5.32;;;2.72;;
6243;SDS011;3155;49.940;8.450;2022-12-18T09:13:23;4.55;;;1.73;;
6243;SDS011;3155;49.940;8.450;2022-12-18T09:15:52;0.90;;;0.90;;
6243;SDS011;3155;49.940;8.450;2022-12-18T09:18:21;2.80;;;2.42;;
6243;SDS011;3155;49.940;8.450;2022-12-18T09:20:50;8.90;;;3.27;;
6243;SDS011;3155;49.940;8.450;2022-12-18T09:23:19;8.38;;;3.17;;
6243;SDS011;3155;49.940;8.450;2022-12-18T09:25:47;4.85;;;2.10;;
6243;SDS011;3155;49.940;8.450;2022-12-18T09:28:16;2.90;;;2.60;;
6243;SDS011;3155;49.940;8.450;2022-12-18T09:30:45;3.30;;;1.95;;
6243;SDS011;3155;49.940;8.450;2022-12-18T09:33:13;3.47;;;3.10;;
6243;SDS011;3155;49.940;8.450;2022-12-18T09:35:41;4.43;;;3.10;;
6243;SDS011;3155;49.940;8.450;2022-12-18T09:38:13;10.40;;;3.08;;
6243;SDS011;3155;49.940;8.450;2022-12-18T09:40:42;6.80;;;3.43;;
6243;SDS011;3155;49.940;8.450;2022-12-18T09:43:24;2.90;;;2.65;;
6243;SDS011;3155;49.940;8.450;2022-12-18T09:46:03;10.13;;;3.20;;
6243;SDS011;3155;49.940;8.450;2022-12-18T09:48:35;4.05;;;3.22;;
6243;SDS011;3155;49.940;8.450;2022-12-18T09:51:11;4.45;;;3.20;;
6243;SDS011;3155;49.940;8.450;2022-12-18T09:53:59;5.90;;;3.63;;
6243;SDS011;3155;49.940;8.450;2022-12-18T09:56:30;4.88;;;3.10;;
6243;SDS011;3155;49.940;8.450;2022-12-18T09:59:02;3.40;;;2.93;;
6243;SDS011;3155;49.940;8.450;2022-12-18T10:01:33;9.50;;;3.37;;
6243;SDS011;3155;49.940;8.450;2022-12-18T10:04:09;3.90;;;2.30;;
6243;SDS011;3155;49.940;8.450;2022-12-18T10:06:44;8.47;;;2.70;;
6243;SDS011;3155;49.940;8.450;2022-12-18T10:09:27;3.33;;;2.88;;
6243;SDS011;3155;49.940;8.450;2022-12-18T10:17:30;8.68;;;3.50;;
6243;SDS011;3155;49.940;8.450;2022-12-18T10:26:03;4.17;;;2.80;;
6243;SDS011;3155;49.940;8.450;2022-12-18T10:28:33;4.10;;;2.13;;
6243;SDS011;3155;49.940;8.450;2022-12-18T10:31:06;8.17;;;3.33;;
6243;SDS011;3155;49.940;8.450;2022-12-18T10:33:34;4.90;;;3.05;;
6243;SDS011;3155;49.940;8.450;2022-12-18T10:36:00;4.15;;;2.25;;
6243;SDS011;3155;49.940;8.450;2022-12-18T10:38:30;9.20;;;3.10;;
6243;SDS011;3155;49.940;8.450;2022-12-18T10:40:59;5.45;;;3.72;;
6243;SDS011;3155;49.940;8.450;2022-12-18T10:43:37;3.53;;;2.35;;
6243;SDS011;3155;49.940;8.450;2022-12-18T10:48:40;5.32;;;3.00;;
6243;SDS011;3155;49.940;8.450;2022-12-18T10:53:51;2.95;;;1.98;;
6243;SDS011;3155;49.940;8.450;2022-12-18T10:56:22;3.50;;;2.80;;
6243;SDS011;3155;49.940;8.450;2022-12-18T10:58:59;4.97;;;3.30;;
6243;SDS011;3155;49.940;8.450;2022-12-18T11:01:32;8.80;;;3.07;;
6243;SDS011;3155;49.940;8.450;2022-12-18T11:07:00;6.15;;;3.17;;
6243;SDS011;3155;49.940;8.450;2022-12-18T11:09:34;7.20;;;2.53;;
6243;SDS011;3155;49.940;8.450;2022-12-18T11:14:47;5.03;;;3.35;;
6243;SDS011;3155;49.940;8.450;2022-12-18T11:17:37;3.15;;;2.80;;
6243;SDS011;3155;49.940;8.450;2022-12-18T11:20:07;8.20;;;3.63;;
6243;SDS011;3155;49.940;8.450;2022-12-18T11:22:58;8.10;;;3.15;;
6243;SDS011;3155;49.940;8.450;2022-12-18T11:25:37;3.15;;;2.83;;
6243;SDS011;3155;49.940;8.450;2022-12-18T11:28:06;6.05;;;2.92;;
6243;SDS011;3155;49.940;8.450;2022-12-18T11:31:08;6.28;;;2.58;;
6243;SDS011;3155;49.940;8.450;2022-12-18T11:33:36;5.72;;;2.80;;
6243;SDS011;3155;49.940;8.450;2022-12-18T11:36:23;4.80;;;2.50;;
6243;SDS011;3155;49.940;8.450;2022-12-18T11:38:54;9.95;;;3.20;;
6243;SDS011;3155;49.940;8.450;2022-12-18T11:41:26;5.97;;;3.25;;
6243;SDS011;3155;49.940;8.450;2022-12-18T11:44:18;4.40;;;3.00;;
6243;SDS011;3155;49.940;8.450;2022-12-18T11:47:01;6.18;;;3.75;;
6243;SDS011;3155;49.940;8.450;2022-12-18T11:49:35;3.30;;;2.35;;
6243;SDS011;3155;49.940;8.450;2022-12-18T11:54:58;6.57;;;3.72;;
6243;SDS011;3155;49.940;8.450;2022-12-18T11:57:35;4.33;;;3.07;;
6243;SDS011;3155;49.940;8.450;2022-12-18T12:00:16;10.80;;;3.70;;
6243;SDS011;3155;49.940;8.450;2022-12-18T12:13:23;4.35;;;3.53;;
6243;SDS011;3155;49.940;8.450;2022-12-18T12:21:40;3.47;;;2.67;;
6243;SDS011;3155;49.940;8.450;2022-12-18T12:27:11;3.20;;;2.80;;
6243;SDS011;3155;49.940;8.450;2022-12-18T12:38:20;4.50;;;1.75;;
6243;SDS011;3155;49.940;8.450;2022-12-18T12:40:59;3.80;;;3.03;;
6243;SDS011;3155;49.940;8.450;2022-12-18T12:43:39;7.70;;;3.15;;
6243;SDS011;3155;49.940;8.450;2022-12-18T12:46:17;3.72;;;3.13;;
6243;SDS011;3155;49.940;8.450;2022-12-18T12:51:26;6.75;;;2.45;;
6243;SDS011;3155;49.940;8.450;2022-12-18T12:53:56;6.30;;;2.50;;
6243;SDS011;3155;49.940;8.450;2022-12-18T13:02:21;7.65;;;2.50;;
6243;SDS011;3155;49.940;8.450;2022-12-18T13:05:00;6.13;;;3.25;;
6243;SDS011;3155;49.940;8.450;2022-12-18T13:08:06;5.23;;;2.47;;
6243;SDS011;3155;49.940;8.450;2022-12-18T13:10:40;3.92;;;3.05;;
6243;SDS011;3155;49.940;8.450;2022-12-18T13:13:13;3.33;;;2.75;;
6243;SDS011;3155;49.940;8.450;2022-12-18T13:15:47;5.43;;;2.72;;
6243;SDS011;3155;49.940;8.450;2022-12-18T13:18:32;9.02;;;2.35;;
6243;SDS011;3155;49.940;8.450;2022-12-18T13:31:00;4.15;;;3.38;;
6243;SDS011;3155;49.940;8.450;2022-12-18T13:36:29;4.60;;;3.28;;
6243;SDS011;3155;49.940;8.450;2022-12-18T13:39:35;3.50;;;2.50;;
6243;SDS011;3155;49.940;8.450;2022-12-18T13:44:39;4.07;;;2.05;;
6243;SDS011;3155;49.940;8.450;2022-12-18T13:50:01;6.10;;;2.53;;
6243;SDS011;3155;49.940;8.450;2022-12-18T13:52:45;3.47;;;2.42;;
6243;SDS011;3155;49.940;8.450;2022-12-18T13:55:16;2.05;;;1.88;;
6243;SDS011;3155;49.940;8.450;2022-12-18T13:57:46;5.03;;;2.67;;
6243;SDS011;3155;49.940;8.450;2022-12-18T14:02:57;5.22;;;2.63;;
6243;SDS011;3155;49.940;8.450;2022-12-18T14:05:29;9.52;;;3.40;;
6243;SDS011;3155;49.940;8.450;2022-12-18T14:08:00;5.55;;;2.65;;
6243;SDS011;3155;49.940;8.450;2022-12-18T14:10:40;8.48;;;2.85;;
6243;SDS011;3155;49.940;8.450;2022-12-18T14:13:28;7.18;;;3.25;;
6243;SDS011;3155;49.940;8.450;2022-12-18T14:16:16;4.15;;;2.03;;
6243;SDS011;3155;49.940;8.450;2022-12-18T14:18:53;8.50;;;3.00;;
6243;SDS011;3155;49.940;8.450;2022-12-18T14:21:40;6.35;;;2.67;;
6243;SDS011;3155;49.940;8.450;2022-12-18T14:24:17;5.13;;;1.85;;
6243;SDS011;3155;49.940;8.450;2022-12-18T14:26:49;9.48;;;2.38;;
6243;SDS011;3155;49.940;8.450;2022-12-18T14:29:27;2.75;;;2.55;;
6243;SDS011;3155;49.940;8.450;2022-12-18T14:32:09;2.90;;;1.48;;
6243;SDS011;3155;49.940;8.450;2022-12-18T14:34:47;4.07;;;2.60;;
6243;SDS011;3155;49.940;8.450;2022-12-18T14:37:39;5.13;;;2.40;;
6243;SDS011;3155;49.940;8.450;2022-12-18T14:40:11;6.38;;;2.95;;
6243;SDS011;3155;49.940;8.450;2022-12-18T14:42:39;7.53;;;2.83;;
6243;SDS011;3155;49.940;8.450;2022-12-18T14:48:20;3.97;;;2.08;;
6243;SDS011;3155;49.940;8.450;2022-12-18T14:51:21;4.22;;;2.40;;
6243;SDS011;3155;49.940;8.450;2022-12-18T15:04:37;6.03;;;2.72;;
6243;SDS011;3155;49.940;8.450;2022-12-18T15:07:19;1.33;;;1.23;;
6243;SDS011;3155;49.940;8.450;2022-12-18T15:12:37;2.35;;;2.15;;
6243;SDS011;3155;49.940;8.450;2022-12-18T15:18:05;5.47;;;2.60;;
6243;SDS011;3155;49.940;8.450;2022-12-18T15:20:56;3.38;;;2.55;;
6243;SDS011;3155;49.940;8.450;2022-12-18T15:26:03;3.17;;;2.88;;
6243;SDS011;3155;49.940;8.450;2022-12-18T15:28:37;5.18;;;2.30;;
6243;SDS011;3155;49.940;8.450;2022-12-18T15:31:35;3.40;;;2.55;;
6243;SDS011;3155;49.940;8.450;2022-12-18T15:36:34;3.28;;;2.70;;
6243;SDS011;3155;49.940;8.450;2022-12-18T15:39:02;3.00;;;2.30;;
6243;SDS011;3155;49.940;8.450;2022-12-18T15:41:32;5.80;;;2.67;;
6243;SDS011;3155;49.940;8.450;2022-12-18T15:44:01;3.78;;;2.22;;
6243;SDS011;3155;49.940;8.450;2022-12-18T15:46:29;4.28;;;2.75;;
6243;SDS011;3155;49.940;8.450;2022-12-18T15:48:57;6.38;;;1.73;;
6243;SDS011;3155;49.940;8.450;2022-12-18T15:53:55;5.05;;;2.28;;
6243;SDS011;3155;49.940;8.450;2022-12-18T15:56:24;6.60;;;2.63;;
6243;SDS011;3155;49.940;8.450;2022-12-18T15:59:10;6.00;;;2.72;;
6243;SDS011;3155;49.940;8.450;2022-12-18T16:01:40;3.03;;;2.28;;
6243;SDS011;3155;49.940;8.450;2022-12-18T16:04:29;4.40;;;2.40;;
6243;SDS011;3155;49.940;8.450;2022-12-18T16:06:55;2.88;;;2.10;;
6243;SDS011;3155;49.940;8.450;2022-12-18T16:09:42;6.50;;;2.83;;
6243;SDS011;3155;49.940;8.450;2022-12-18T16:12:18;4.60;;;1.65;;
6243;SDS011;3155;49.940;8.450;2022-12-18T16:14:50;4.60;;;2.22;;
6243;SDS011;3155;49.940;8.450;2022-12-18T16:17:17;5.60;;;2.87;;
6243;SDS011;3155;49.940;8.450;2022-12-18T16:19:44;2.67;;;2.30;;
6243;SDS011;3155;49.940;8.450;2022-12-18T16:22:25;5.57;;;1.92;;
6243;SDS011;3155;49.940;8.450;2022-12-18T16:24:55;5.07;;;1.80;;
6243;SDS011;3155;49.940;8.450;2022-12-18T16:27:25;4.50;;;2.22;;
6243;SDS011;3155;49.940;8.450;2022-12-18T16:29:55;5.85;;;2.22;;
6243;SDS011;3155;49.940;8.450;2022-12-18T16:32:22;2.60;;;2.03;;
6243;SDS011;3155;49.940;8.450;2022-12-18T16:34:49;5.85;;;2.65;;
6243;SDS011;3155;49.940;8.450;2022-12-18T16:37:16;1.35;;;1.27;;
6243;SDS011;3155;49.940;8.450;2022-12-18T16:39:43;5.10;;;1.45;;
6243;SDS011;3155;49.940;8.450;2022-12-18T16:42:14;2.90;;;1.95;;
6243;SDS011;3155;49.940;8.450;2022-12-18T16:44:45;9.15;;;2.65;;
6243;SDS011;3155;49.940;8.450;2022-12-18T16:47:13;6.30;;;2.42;;
6243;SDS011;3155;49.940;8.450;2022-12-18T16:49:40;4.00;;;2.00;;
6243;SDS011;3155;49.940;8.450;2022-12-18T16:52:08;4.05;;;2.28;;
6243;SDS011;3155;49.940;8.450;2022-12-18T16:54:34;6.47;;;1.92;;
6243;SDS011;3155;49.940;8.450;2022-12-18T16:57:02;4.32;;;2.70;;
6243;SDS011;3155;49.940;8.450;2022-12-18T16:59:31;2.88;;;2.13;;
6243;SDS011;3155;49.940;8.450;2022-12-18T17:02:01;2.38;;;1.67;;
6243;SDS011;3155;49.940;8.450;2022-12-18T17:04:28;2.45;;;1.75;;
6243;SDS011;3155;49.940;8.450;2022-12-18T17:06:57;4.10;;;2.50;;
6243;SDS011;3155;49.940;8.450;2022-12-18T17:09:24;3.55;;;1.52;;
6243;SDS011;3155;49.940;8.450;2022-12-18T17:11:52;6.03;;;2.40;;
6243;SDS011;3155;49.940;8.450;2022-12-18T17:14:20;1.30;;;1.25;;
6243;SDS011;3155;49.940;8.450;2022-12-18T17:16:48;2.42;;;2.03;;
6243;SDS011;3155;49.940;8.450;2022-12-18T17:19:35;12.02;;;2.65;;
6243;SDS011;3155;49.940;8.450;2022-12-18T17:22:02;2.63;;;2.17;;
6243;SDS011;3155;49.940;8.450;2022-12-18T17:24:35;9.70;;;2.80;;
6243;SDS011;3155;49.940;8.450;2022-12-18T17:27:03;7.85;;;2.70;;
6243;SDS011;3155;49.940;8.450;2022-12-18T17:29:30;3.20;;;2.00;;
6243;SDS011;3155;49.940;8.450;2022-12-18T17:31:56;2.67;;;1.13;;
6243;SDS011;3155;49.940;8.450;2022-12-18T17:34:25;5.00;;;2.97;;
6243;SDS011;3155;49.940;8.450;2022-12-18T17:36:53;12.30;;;2.38;;
6243;SDS011;3155;49.940;8.450;2022-12-18T17:39:20;4.30;;;2.28;;
6243;SDS011;3155;49.940;8.450;2022-12-18T17:41:47;8.68;;;2.53;;
6243;SDS011;3155;49.940;8.450;2022-12-18T17:44:15;9.00;;;2.83;;
6243;SDS011;3155;49.940;8.450;2022-12-18T17:46:42;3.40;;;2.80;;
6243;SDS011;3155;49.940;8.450;2022-12-18T17:49:11;3.60;;;2.08;;
6243;SDS011;3155;49.940;8.450;2022-12-18T17:51:39;3.97;;;1.95;;
6243;SDS011;3155;49.940;8.450;2022-12-18T17:54:08;8.00;;;4.70;;
6243;SDS011;3155;49.940;8.450;2022-12-18T17:56:38;6.28;;;3.28;;
6243;SDS011;3155;49.940;8.450;2022-12-18T17:59:05;3.35;;;3.08;;